Time;durP1;ratioP1;P1;durP2;ratioP2;P2;SDS_P1;SDS_P2;PMS_P1;PMS_P2;Temp;Humidity;BMP_temperature;BMP_pressure;BME280_temperature;BME280_humidity;BME280_pressure;Samples;Min_cycle;Max_cycle;Signal;HPM_P1;HPM_P2
2021/12/24 00:00:03;;;;;;;17.17;11.70;;;-7.20;62.50;;;;;;5082366;28;20111;-54
2021/12/24 00:02:28;;;;;;;13.63;9.40;;;-7.30;62.50;;;;;;5082091;28;20031;-54
2021/12/24 00:04:54;;;;;;;18.88;10.65;;;-7.20;62.60;;;;;;5074658;28;20078;-52
2021/12/24 00:07:20;;;;;;;17.35;9.50;;;-7.20;62.70;;;;;;5075876;28;20027;-54
2021/12/24 00:09:45;;;;;;;17.50;10.30;;;-7.20;62.70;;;;;;5080284;28;20043;-52
2021/12/24 00:12:16;;;;;;;19.23;10.73;;;-7.20;62.80;;;;;;5076771;28;20032;-52
2021/12/24 00:14:47;;;;;;;13.60;7.60;;;-7.30;62.80;;;;;;5085696;28;20032;-54
2021/12/24 00:17:15;;;;;;;13.60;8.02;;;-7.30;63.50;;;;;;5073888;28;20733;-54
2021/12/24 00:19:59;;;;;;;18.10;10.10;;;-7.30;63.10;;;;;;5085753;28;20032;-53
2021/12/24 00:36:08;;;;;;;14.13;7.60;;;-7.30;63.30;;;;;;5079824;28;20038;-53
2021/12/24 00:38:34;;;;;;;14.70;7.68;;;-7.30;63.40;;;;;;5080262;28;20028;-54
2021/12/24 00:41:00;;;;;;;12.35;7.43;;;-7.20;63.60;;;;;;5081867;28;20059;-52
2021/12/24 00:43:25;;;;;;;10.32;6.78;;;-7.20;63.70;;;;;;5078529;28;20036;-52
2021/12/24 00:45:51;;;;;;;12.38;7.50;;;-7.20;63.80;;;;;;5073564;28;20036;-54
2021/12/24 00:48:19;;;;;;;9.70;6.28;;;-7.20;63.80;;;;;;5084950;28;20089;-53
2021/12/24 00:56:00;;;;;;;11.30;6.60;;;-7.20;64.10;;;;;;5084071;28;20085;-51
2021/12/24 00:58:26;;;;;;;9.60;6.40;;;-7.20;64.00;;;;;;5086107;28;20024;-54
2021/12/24 01:00:52;;;;;;;7.88;6.55;;;-7.20;64.10;;;;;;5079591;28;20030;-53
2021/12/24 01:03:18;;;;;;;10.52;5.80;;;-7.20;64.20;;;;;;5079460;28;20132;-52
2021/12/24 01:05:44;;;;;;;10.55;6.28;;;-7.20;64.20;;;;;;5081691;28;20025;-52
2021/12/24 01:08:11;;;;;;;10.98;6.88;;;-7.10;64.20;;;;;;5076748;28;20107;-54
2021/12/24 01:10:42;;;;;;;10.35;7.20;;;-7.10;64.20;;;;;;5077888;28;20025;-53
2021/12/24 01:13:07;;;;;;;11.55;7.63;;;-7.10;64.10;;;;;;5080019;28;20141;-55
2021/12/24 01:15:36;;;;;;;11.60;8.27;;;-7.10;64.20;;;;;;5076072;28;20503;-54
2021/12/24 01:20:52;;;;;;;9.82;7.28;;;-7.10;64.10;;;;;;5058111;28;20041;-54
2021/12/24 01:23:31;;;;;;;10.82;7.03;;;-7.10;64.30;;;;;;5081258;28;20075;-53
2021/12/24 01:26:10;;;;;;;12.38;6.50;;;-7.10;64.20;;;;;;5080069;28;20024;-53
2021/12/24 01:45:33;;;;;;;8.55;6.05;;;-7.10;64.40;;;;;;5088093;28;20028;-56
2021/12/24 01:48:02;;;;;;;10.75;6.32;;;-7.00;64.20;;;;;;5077720;28;20032;-53
2021/12/24 01:50:32;;;;;;;12.30;7.18;;;-7.00;64.20;;;;;;5083350;28;20032;-55
2021/12/24 01:52:58;;;;;;;8.20;5.32;;;-7.00;64.20;;;;;;5083134;28;20029;-54
2021/12/24 01:55:25;;;;;;;11.82;6.18;;;-6.90;64.20;;;;;;5086127;28;20460;-54
2021/12/24 01:57:51;;;;;;;9.52;6.63;;;-6.90;64.20;;;;;;5086408;28;20623;-52
2021/12/24 02:00:24;;;;;;;9.50;5.90;;;-6.80;64.20;;;;;;5084122;28;20112;-53
2021/12/24 02:02:50;;;;;;;12.38;7.40;;;-6.90;64.00;;;;;;5080660;28;20032;-56
2021/12/24 02:05:17;;;;;;;13.13;8.05;;;-6.90;64.00;;;;;;5082653;28;20020;-53
2021/12/24 02:07:42;;;;;;;11.25;7.18;;;-6.80;64.10;;;;;;5085987;28;20035;-54
2021/12/24 02:10:11;;;;;;;9.88;6.60;;;-6.80;64.00;;;;;;5083808;28;20033;-53
2021/12/24 02:12:37;;;;;;;11.98;7.35;;;-6.80;63.90;;;;;;5086178;28;20020;-54
2021/12/24 02:15:08;;;;;;;11.82;7.88;;;-6.70;64.00;;;;;;5084386;28;20078;-55
2021/12/24 02:17:59;;;;;;;8.65;6.22;;;-6.70;64.00;;;;;;5090712;28;20483;-55
2021/12/24 02:28:41;;;;;;;9.68;6.22;;;-6.70;63.80;;;;;;5078412;28;20090;-53
2021/12/24 02:31:09;;;;;;;10.70;6.88;;;-6.70;63.80;;;;;;5082421;28;20035;-53
2021/12/24 02:33:34;;;;;;;8.93;6.38;;;-6.80;63.80;;;;;;5090568;28;20099;-53
2021/12/24 02:36:01;;;;;;;11.48;7.63;;;-6.80;63.80;;;;;;5081731;28;20055;-55
2021/12/24 02:38:26;;;;;;;12.55;8.38;;;-6.80;64.00;;;;;;5083805;28;20455;-55
2021/12/24 02:40:53;;;;;;;11.85;7.75;;;-6.80;64.00;;;;;;5075240;28;20025;-54
2021/12/24 02:43:21;;;;;;;22.10;12.25;;;-6.80;64.00;;;;;;5090219;28;20445;-53
2021/12/24 02:45:49;;;;;;;32.90;16.85;;;-6.80;64.10;;;;;;5076734;28;20033;-52
2021/12/24 02:49:04;;;;;;;44.38;18.30;;;-6.70;64.20;;;;;;5083315;28;20028;-53
2021/12/24 02:56:26;;;;;;;49.40;22.20;;;-6.70;64.20;;;;;;5090943;28;20030;-56
2021/12/24 02:58:52;;;;;;;43.40;16.77;;;-6.60;64.20;;;;;;5084635;28;20077;-54
2021/12/24 03:01:22;;;;;;;30.38;14.77;;;-6.50;64.30;;;;;;5083545;28;20388;-52
2021/12/24 03:03:48;;;;;;;31.52;14.18;;;-6.40;64.20;;;;;;5079223;28;20029;-53
2021/12/24 03:06:20;;;;;;;20.52;11.40;;;-6.30;64.20;;;;;;5084291;28;20040;-52
2021/12/24 03:08:45;;;;;;;16.00;8.90;;;-6.30;64.00;;;;;;5088722;28;20064;-53
2021/12/24 03:11:12;;;;;;;16.83;8.55;;;-6.20;63.90;;;;;;5092075;28;20070;-53
2021/12/24 03:13:39;;;;;;;16.00;8.82;;;-6.20;63.80;;;;;;5082783;28;20020;-54
2021/12/24 03:16:05;;;;;;;15.63;8.25;;;-6.10;63.70;;;;;;5087151;28;20020;-54
2021/12/24 03:18:33;;;;;;;14.60;7.85;;;-6.20;63.50;;;;;;5075527;28;20073;-52
2021/12/24 03:21:08;;;;;;;12.18;6.78;;;-6.10;63.50;;;;;;5085623;28;20495;-53
2021/12/24 03:23:38;;;;;;;11.88;6.70;;;-6.10;63.40;;;;;;5079586;28;20052;-55
2021/12/24 03:26:05;;;;;;;14.25;7.80;;;-6.20;63.20;;;;;;5085238;28;20017;-53
2021/12/24 03:28:31;;;;;;;14.25;8.32;;;-6.20;63.20;;;;;;5085482;28;20024;-52
2021/12/24 03:30:57;;;;;;;10.73;6.80;;;-6.20;63.30;;;;;;5090938;28;20024;-55
2021/12/24 03:33:23;;;;;;;9.15;6.70;;;-6.20;63.30;;;;;;5077903;28;20028;-55
2021/12/24 03:35:49;;;;;;;11.05;6.22;;;-6.20;63.40;;;;;;5081443;28;20020;-55
2021/12/24 03:38:15;;;;;;;8.77;6.13;;;-6.20;63.40;;;;;;5079333;28;20058;-55
2021/12/24 03:40:40;;;;;;;8.20;6.32;;;-6.10;63.30;;;;;;5075397;28;20024;-56
2021/12/24 03:43:06;;;;;;;10.18;6.60;;;-6.10;63.20;;;;;;5077670;28;20472;-53
2021/12/24 03:48:22;;;;;;;14.05;7.70;;;-6.10;63.10;;;;;;5086273;28;20498;-52
2021/12/24 03:56:05;;;;;;;13.73;7.95;;;-6.20;63.00;;;;;;5066743;28;20029;-54
2021/12/24 03:58:31;;;;;;;17.83;8.43;;;-6.30;63.10;;;;;;5085339;28;20019;-57
2021/12/24 04:00:56;;;;;;;12.98;8.20;;;-6.30;63.20;;;;;;5084739;28;20468;-56
2021/12/24 04:03:22;;;;;;;12.13;8.07;;;-6.30;63.30;;;;;;5074662;28;20450;-53
2021/12/24 04:05:48;;;;;;;11.18;7.38;;;-6.20;63.40;;;;;;5088841;28;20020;-52
2021/12/24 04:08:14;;;;;;;10.55;7.03;;;-6.20;63.50;;;;;;5085120;28;20052;-52
2021/12/24 04:10:40;;;;;;;13.23;6.55;;;-6.10;63.70;;;;;;5085744;28;20030;-57
2021/12/24 04:13:11;;;;;;;10.13;6.13;;;-6.00;63.60;;;;;;5080215;28;20111;-55
2021/12/24 04:15:37;;;;;;;12.65;6.68;;;-5.90;63.60;;;;;;5079445;28;20024;-53
2021/12/24 04:18:14;;;;;;;10.68;7.38;;;-5.90;63.60;;;;;;5081630;28;20027;-54
2021/12/24 04:26:09;;;;;;;9.60;5.90;;;-5.70;63.10;;;;;;5082677;28;20027;-54
2021/12/24 04:28:35;;;;;;;11.57;6.90;;;-5.70;63.00;;;;;;5080545;28;20037;-56
2021/12/24 04:31:02;;;;;;;21.08;9.65;;;-5.60;62.90;;;;;;5083860;28;20028;-55
2021/12/24 04:33:37;;;;;;;24.35;9.23;;;-5.60;63.00;;;;;;5074785;28;20028;-55
2021/12/24 04:36:44;;;;;;;24.67;10.93;;;-5.60;63.10;;;;;;5080671;28;20036;-55
2021/12/24 04:39:34;;;;;;;24.17;11.15;;;-5.50;63.10;;;;;;5082099;28;20077;-54
2021/12/24 04:53:20;;;;;;;10.63;5.78;;;-5.20;62.70;;;;;;5085763;28;20082;-53
2021/12/24 05:04:10;;;;;;;10.27;6.45;;;-5.00;62.50;;;;;;5051344;28;20021;-57
2021/12/24 05:06:41;;;;;;;9.35;6.38;;;-5.00;62.60;;;;;;5054457;28;20056;-55
2021/12/24 05:09:10;;;;;;;10.93;6.85;;;-5.00;62.70;;;;;;5067690;28;20044;-54
2021/12/24 05:11:36;;;;;;;11.85;7.07;;;-5.00;62.80;;;;;;5086544;28;20033;-52
2021/12/24 05:14:03;;;;;;;9.77;6.88;;;-4.90;62.90;;;;;;5081405;28;20035;-54
2021/12/24 05:21:49;;;;;;;11.10;6.88;;;-4.80;62.70;;;;;;5087844;28;20081;-53
2021/12/24 05:24:20;;;;;;;10.45;6.40;;;-4.80;62.80;;;;;;5081155;28;20078;-54
2021/12/24 05:26:49;;;;;;;9.48;5.85;;;-4.70;62.90;;;;;;5083375;28;20040;-56
2021/12/24 05:29:16;;;;;;;10.63;6.22;;;-4.70;62.90;;;;;;5084100;28;20135;-57
2021/12/24 05:31:42;;;;;;;7.25;5.68;;;-4.70;62.80;;;;;;5080842;28;20016;-54
2021/12/24 05:34:08;;;;;;;7.32;5.85;;;-4.70;62.80;;;;;;5079115;28;20099;-54
2021/12/24 05:36:35;;;;;;;9.65;6.28;;;-4.70;63.00;;;;;;5087468;28;20162;-57
2021/12/24 05:39:01;;;;;;;8.25;6.30;;;-4.70;63.00;;;;;;5084839;28;20036;-56
2021/12/24 05:41:26;;;;;;;7.03;5.55;;;-4.70;63.00;;;;;;5079133;28;20033;-54
2021/12/24 05:43:52;;;;;;;6.68;5.85;;;-4.70;63.00;;;;;;5088183;28;20039;-55
2021/12/24 05:46:18;;;;;;;8.52;5.43;;;-4.70;63.10;;;;;;5085762;28;20043;-54
2021/12/24 05:48:44;;;;;;;9.82;6.05;;;-4.70;63.10;;;;;;5080304;28;20024;-57
2021/12/24 05:51:10;;;;;;;7.00;5.63;;;-4.70;63.30;;;;;;5085284;28;20473;-56
2021/12/24 05:53:37;;;;;;;7.70;5.97;;;-4.60;63.30;;;;;;5084878;28;20023;-57
2021/12/24 05:56:03;;;;;;;9.73;5.55;;;-4.60;63.30;;;;;;5077033;28;20380;-57
2021/12/24 05:58:29;;;;;;;9.68;6.03;;;-4.60;63.50;;;;;;5077887;28;20028;-55
2021/12/24 06:00:56;;;;;;;8.43;6.07;;;-4.50;63.50;;;;;;5086601;28;20031;-54
2021/12/24 06:03:22;;;;;;;6.80;5.50;;;-4.50;63.40;;;;;;5080974;28;20043;-57
2021/12/24 06:05:48;;;;;;;11.00;5.68;;;-4.40;63.40;;;;;;5084181;28;20420;-57
2021/12/24 06:08:14;;;;;;;8.60;5.57;;;-4.40;63.20;;;;;;5080094;28;20159;-56
2021/12/24 06:10:41;;;;;;;8.50;6.00;;;-4.50;63.20;;;;;;5082982;28;20514;-56
2021/12/24 06:13:07;;;;;;;6.90;5.32;;;-4.40;63.20;;;;;;5083042;28;20040;-56
2021/12/24 06:15:42;;;;;;;7.65;5.30;;;-4.40;63.30;;;;;;5083271;28;20059;-56
2021/12/24 06:18:26;;;;;;;7.07;5.30;;;-4.50;63.10;;;;;;5077708;28;20024;-56
2021/12/24 06:20:53;;;;;;;8.90;5.45;;;-4.50;63.10;;;;;;5073762;28;21281;-57
2021/12/24 06:23:22;;;;;;;7.97;5.38;;;-4.50;63.10;;;;;;5080491;28;20061;-54
2021/12/24 06:25:49;;;;;;;8.15;5.30;;;-4.50;63.20;;;;;;5082695;28;20125;-57
2021/12/24 06:28:14;;;;;;;6.20;4.80;;;-4.50;63.10;;;;;;5081594;28;20020;-57
2021/12/24 06:30:41;;;;;;;10.35;5.50;;;-4.50;63.20;;;;;;5080735;28;20032;-56
2021/12/24 06:33:08;;;;;;;8.57;5.13;;;-4.50;63.30;;;;;;5082588;28;20035;-57
2021/12/24 06:35:34;;;;;;;8.15;5.72;;;-4.50;63.20;;;;;;5084087;28;20059;-55
2021/12/24 06:37:59;;;;;;;7.57;5.82;;;-4.50;63.40;;;;;;5083908;28;20055;-53
2021/12/24 06:40:26;;;;;;;8.90;6.03;;;-4.50;63.40;;;;;;5076092;28;20027;-56
2021/12/24 06:42:51;;;;;;;10.13;5.47;;;-4.40;63.40;;;;;;5079209;28;20099;-57
2021/12/24 06:45:22;;;;;;;10.27;6.43;;;-4.30;63.40;;;;;;5077482;28;20111;-55
2021/12/24 06:47:48;;;;;;;8.85;6.15;;;-4.30;63.20;;;;;;5070827;28;20039;-57
2021/12/24 06:50:14;;;;;;;10.25;5.63;;;-4.20;63.20;;;;;;5080650;28;20038;-55
2021/12/24 06:52:40;;;;;;;8.35;5.85;;;-4.20;63.10;;;;;;5071272;28;20237;-55
2021/12/24 06:55:05;;;;;;;8.48;5.70;;;-4.20;63.20;;;;;;5075935;28;20100;-58
2021/12/24 06:57:31;;;;;;;9.27;5.75;;;-4.10;63.30;;;;;;5077778;28;20024;-54
2021/12/24 06:59:57;;;;;;;7.75;5.50;;;-4.10;63.20;;;;;;5074152;28;20037;-56
2021/12/24 07:02:22;;;;;;;10.98;6.45;;;-4.10;63.60;;;;;;5073657;28;20043;-54
2021/12/24 07:04:48;;;;;;;10.00;6.28;;;-4.00;63.20;;;;;;5073635;28;20027;-57
2021/12/24 07:07:14;;;;;;;8.70;5.88;;;-4.00;63.20;;;;;;5081996;28;20106;-56
2021/12/24 07:09:42;;;;;;;7.10;5.53;;;-3.90;63.20;;;;;;5076182;28;20047;-56
2021/12/24 07:12:12;;;;;;;7.70;5.95;;;-3.90;63.10;;;;;;5073230;28;20111;-52
2021/12/24 07:14:42;;;;;;;8.45;6.15;;;-3.80;62.90;;;;;;5066879;28;20032;-55
2021/12/24 07:17:09;;;;;;;9.52;6.13;;;-3.70;62.90;;;;;;5073367;28;20032;-53
2021/12/24 07:19:35;;;;;;;9.20;7.00;;;-3.70;62.80;;;;;;5075124;28;20036;-56
2021/12/24 07:22:02;;;;;;;10.13;6.82;;;-3.70;62.70;;;;;;5076526;28;20032;-54
2021/12/24 07:24:28;;;;;;;11.50;7.28;;;-3.70;62.60;;;;;;5077104;28;20047;-56
2021/12/24 07:26:53;;;;;;;10.82;6.95;;;-3.70;62.70;;;;;;5075546;28;20609;-56
2021/12/24 07:29:25;;;;;;;10.85;7.13;;;-3.70;62.80;;;;;;5077414;28;20043;-53
2021/12/24 07:31:50;;;;;;;12.07;7.43;;;-3.70;62.90;;;;;;5078200;28;20411;-55
2021/12/24 07:34:16;;;;;;;9.50;7.32;;;-3.70;62.90;;;;;;5080888;28;20016;-58
2021/12/24 07:36:41;;;;;;;10.70;7.10;;;-3.80;62.90;;;;;;5079549;28;20035;-57
2021/12/24 07:39:07;;;;;;;10.40;6.75;;;-3.80;62.90;;;;;;5073067;28;20047;-55
2021/12/24 07:41:33;;;;;;;11.27;7.13;;;-3.80;63.10;;;;;;5070898;28;20127;-55
2021/12/24 07:43:58;;;;;;;9.40;6.45;;;-3.80;63.30;;;;;;5072646;28;20033;-54
2021/12/24 07:46:31;;;;;;;9.32;6.60;;;-3.80;63.40;;;;;;5077056;28;20045;-58
2021/12/24 07:49:02;;;;;;;10.00;7.38;;;-3.80;63.50;;;;;;5074785;28;20036;-57
2021/12/24 07:54:12;;;;;;;14.40;9.90;;;-3.80;63.60;;;;;;5071345;28;20116;-55
2021/12/24 07:56:37;;;;;;;11.18;8.07;;;-3.80;63.80;;;;;;5076815;28;20111;-56
2021/12/24 07:59:03;;;;;;;11.23;6.60;;;-3.70;64.00;;;;;;5074334;28;20424;-54
2021/12/24 08:01:29;;;;;;;9.77;7.38;;;-3.70;64.10;;;;;;5075790;28;20587;-55
2021/12/24 08:03:56;;;;;;;11.77;7.68;;;-3.70;64.10;;;;;;5072264;28;20697;-55
2021/12/24 08:06:24;;;;;;;16.98;9.82;;;-3.70;64.30;;;;;;5072725;28;20032;-54
2021/12/24 08:08:50;;;;;;;13.68;9.18;;;-3.70;64.70;;;;;;5066666;28;20033;-54
2021/12/24 08:11:16;;;;;;;16.67;10.18;;;-3.70;64.80;;;;;;5070555;28;20149;-56
2021/12/24 08:13:42;;;;;;;12.57;9.20;;;-3.70;64.90;;;;;;5070075;28;23318;-54
2021/12/24 08:16:09;;;;;;;13.55;9.27;;;-3.70;65.10;;;;;;5069080;28;20412;-56
2021/12/24 08:18:36;;;;;;;14.10;10.35;;;-3.70;65.60;;;;;;5065224;28;20032;-55
2021/12/24 08:21:03;;;;;;;14.70;9.05;;;-3.70;65.90;;;;;;5073519;28;20116;-56
2021/12/24 08:23:28;;;;;;;12.90;9.80;;;-3.70;66.20;;;;;;5065759;28;20040;-56
2021/12/24 08:25:58;;;;;;;14.13;9.93;;;-3.70;66.30;;;;;;5067372;28;23190;-57
2021/12/24 08:28:25;;;;;;;15.88;11.45;;;-3.70;66.50;;;;;;5060890;28;20067;-56
2021/12/24 08:30:50;;;;;;;13.07;10.18;;;-3.70;66.70;;;;;;5057949;28;20028;-55
2021/12/24 08:33:16;;;;;;;11.30;8.23;;;-3.70;67.10;;;;;;5065765;28;20032;-56
2021/12/24 08:35:42;;;;;;;15.50;10.05;;;-3.70;67.20;;;;;;5067361;28;21008;-55
2021/12/24 08:38:08;;;;;;;14.57;9.98;;;-3.70;67.50;;;;;;5070855;28;20464;-58
2021/12/24 08:40:34;;;;;;;11.65;7.18;;;-3.70;67.70;;;;;;5068621;28;20081;-56
2021/12/24 08:43:00;;;;;;;12.60;7.72;;;-3.70;67.80;;;;;;5069933;28;20039;-53
2021/12/24 08:45:26;;;;;;;14.98;9.90;;;-3.70;68.10;;;;;;5066620;28;20035;-54
2021/12/24 08:47:51;;;;;;;11.00;8.18;;;-3.70;68.20;;;;;;5058934;28;20033;-57
2021/12/24 08:50:17;;;;;;;13.25;8.88;;;-3.70;68.40;;;;;;5056209;28;20032;-56
2021/12/24 08:52:44;;;;;;;15.40;10.00;;;-3.70;68.40;;;;;;5062744;28;20032;-56
2021/12/24 08:55:11;;;;;;;12.45;8.93;;;-3.60;68.40;;;;;;5051187;28;20043;-54
2021/12/24 08:57:38;;;;;;;14.73;10.50;;;-3.60;68.50;;;;;;5062616;28;20024;-52
2021/12/24 09:00:06;;;;;;;11.15;8.32;;;-3.50;68.50;;;;;;5058222;28;20029;-55
2021/12/24 09:02:31;;;;;;;12.75;9.30;;;-3.40;68.80;;;;;;5065076;28;20084;-53
2021/12/24 09:04:57;;;;;;;13.75;8.38;;;-3.40;68.60;;;;;;5066665;28;20032;-54
2021/12/24 09:07:23;;;;;;;12.45;8.00;;;-3.30;68.60;;;;;;5057691;28;20039;-54
2021/12/24 09:09:48;;;;;;;12.55;9.63;;;-3.20;68.50;;;;;;5061504;28;20062;-54
2021/12/24 09:12:14;;;;;;;12.02;8.25;;;-3.20;68.40;;;;;;5061740;28;22401;-53
2021/12/24 09:14:39;;;;;;;17.05;11.30;;;-3.10;68.30;;;;;;5057859;28;20034;-54
2021/12/24 09:17:05;;;;;;;15.15;9.43;;;-3.10;68.30;;;;;;5057996;28;20094;-55
2021/12/24 09:19:32;;;;;;;12.05;9.20;;;-3.10;69.00;;;;;;5060694;28;20562;-53
2021/12/24 09:21:58;;;;;;;10.82;8.40;;;-3.00;68.40;;;;;;5066554;28;20701;-54
2021/12/24 09:24:26;;;;;;;12.73;9.52;;;-3.00;68.40;;;;;;5068444;28;20072;-55
2021/12/24 09:26:57;;;;;;;11.75;9.38;;;-2.90;68.30;;;;;;5065143;28;20675;-53
2021/12/24 09:29:23;;;;;;;11.13;8.52;;;-2.80;68.10;;;;;;5066068;28;20066;-52
2021/12/24 09:31:49;;;;;;;11.25;8.48;;;-2.80;68.00;;;;;;5065485;28;20056;-52
2021/12/24 09:34:16;;;;;;;9.73;7.63;;;-2.70;68.00;;;;;;5053715;28;20044;-56
2021/12/24 09:36:41;;;;;;;10.65;7.95;;;-2.60;68.10;;;;;;5062514;28;20029;-53
2021/12/24 09:39:09;;;;;;;11.90;8.05;;;-2.60;68.00;;;;;;5072249;28;20115;-56
2021/12/24 09:41:35;;;;;;;13.25;8.98;;;-2.60;68.00;;;;;;5074490;28;20050;-55
2021/12/24 09:44:02;;;;;;;12.02;8.25;;;-2.50;68.00;;;;;;5068630;28;20616;-56
2021/12/24 09:46:29;;;;;;;14.38;10.18;;;-2.50;68.00;;;;;;5071048;28;20035;-54
2021/12/24 09:48:56;;;;;;;13.00;9.63;;;-2.50;68.20;;;;;;5062460;28;20477;-55
2021/12/24 09:51:25;;;;;;;11.00;8.25;;;-2.50;68.20;;;;;;5065434;28;20637;-55
2021/12/24 09:53:51;;;;;;;13.38;8.75;;;-2.50;68.10;;;;;;5067579;28;20040;-55
2021/12/24 09:56:17;;;;;;;14.65;9.75;;;-2.50;68.20;;;;;;5074301;28;20037;-54
2021/12/24 09:58:43;;;;;;;16.27;10.70;;;-2.50;68.40;;;;;;5068372;28;20078;-53
2021/12/24 10:01:31;;;;;;;15.48;10.90;;;-2.50;68.40;;;;;;5059182;28;20028;-54
2021/12/24 10:04:15;;;;;;;13.75;9.70;;;-2.50;68.30;;;;;;5066014;28;20032;-52
2021/12/24 10:07:03;;;;;;;16.05;11.45;;;-2.40;68.40;;;;;;5067608;28;20094;-55
2021/12/24 10:09:32;;;;;;;18.17;12.55;;;-2.40;68.40;;;;;;5063872;28;20050;-55
2021/12/24 10:12:07;;;;;;;18.33;12.60;;;-2.40;68.40;;;;;;5055218;28;20048;-54
2021/12/24 10:14:41;;;;;;;17.65;12.25;;;-2.40;68.40;;;;;;5062461;28;20918;-56
2021/12/24 10:17:19;;;;;;;17.08;12.25;;;-2.30;68.40;;;;;;5067682;28;20036;-50
2021/12/24 10:19:52;;;;;;;20.33;14.38;;;-2.30;68.20;;;;;;5066487;28;20028;-55
2021/12/24 10:22:19;;;;;;;17.42;12.07;;;-2.30;68.30;;;;;;5068373;28;20409;-55
2021/12/24 10:25:07;;;;;;;25.10;15.77;;;-2.20;68.50;;;;;;5069588;28;22715;-55
2021/12/24 10:27:34;;;;;;;18.27;12.38;;;-2.20;68.60;;;;;;5068222;28;20060;-54
2021/12/24 10:30:29;;;;;;;20.63;13.15;;;-2.20;68.80;;;;;;5069799;28;20080;-53
2021/12/24 10:32:57;;;;;;;19.17;13.18;;;-2.10;68.90;;;;;;5062351;28;20048;-55
2021/12/24 10:35:28;;;;;;;18.45;11.88;;;-2.00;68.80;;;;;;5057354;28;20030;-55
2021/12/24 10:38:12;;;;;;;18.38;12.60;;;-2.00;68.70;;;;;;5057797;28;20109;-53
2021/12/24 10:40:57;;;;;;;17.40;12.00;;;-1.90;68.70;;;;;;5065526;28;20078;-55
2021/12/24 10:43:34;;;;;;;18.55;13.38;;;-1.90;68.60;;;;;;5065873;28;20123;-56
2021/12/24 10:46:14;;;;;;;15.93;11.52;;;-1.90;68.80;;;;;;5060017;28;20020;-55
2021/12/24 10:48:58;;;;;;;14.15;10.63;;;-1.90;68.70;;;;;;5065517;28;20682;-51
2021/12/24 10:51:52;;;;;;;14.65;10.73;;;-2.00;68.90;;;;;;5064049;28;20024;-56
2021/12/24 10:54:10;;;;;;;19.17;14.52;;;-2.00;68.90;;;;;;5061858;28;20032;-54
2021/12/24 10:56:35;;;;;;;17.33;12.77;;;-2.00;69.30;;;;;;5061056;28;20040;-53
2021/12/24 10:59:02;;;;;;;18.83;11.32;;;-1.90;69.50;;;;;;5065736;28;20945;-54
2021/12/24 11:01:28;;;;;;;15.23;11.40;;;-1.90;69.60;;;;;;5061069;28;20036;-56
2021/12/24 11:03:53;;;;;;;15.82;10.93;;;-1.80;69.60;;;;;;5065137;28;20035;-53
2021/12/24 11:06:21;;;;;;;17.70;11.25;;;-1.80;69.60;;;;;;5067931;28;20145;-55
2021/12/24 11:08:54;;;;;;;16.42;12.10;;;-1.80;69.70;;;;;;5065863;28;20093;-55
2021/12/24 11:11:20;;;;;;;17.13;10.90;;;-1.80;69.80;;;;;;5070734;28;20025;-55
2021/12/24 11:13:47;;;;;;;15.02;10.82;;;-1.80;69.90;;;;;;5065848;28;20032;-52
2021/12/24 11:16:22;;;;;;;17.90;11.27;;;-1.80;70.10;;;;;;5061342;28;20043;-55
2021/12/24 11:19:00;;;;;;;16.38;12.55;;;-1.80;70.20;;;;;;5063733;28;20035;-55
2021/12/24 11:21:28;;;;;;;16.80;12.07;;;-1.90;70.20;;;;;;5070288;28;20051;-55
2021/12/24 11:23:55;;;;;;;15.13;11.45;;;-1.80;70.40;;;;;;5067759;28;20494;-56
2021/12/24 11:26:25;;;;;;;20.38;12.13;;;-1.90;70.50;;;;;;5072265;28;20492;-54
2021/12/24 11:28:51;;;;;;;21.00;13.75;;;-1.80;70.60;;;;;;5073417;28;20032;-55
2021/12/24 11:31:22;;;;;;;17.95;12.52;;;-1.70;70.70;;;;;;5072649;28;20089;-56
2021/12/24 11:33:49;;;;;;;17.58;11.85;;;-1.60;70.80;;;;;;5073446;28;21583;-52
2021/12/24 11:36:17;;;;;;;16.83;11.07;;;-1.60;70.60;;;;;;5073160;28;20089;-56
2021/12/24 11:38:49;;;;;;;18.73;12.07;;;-1.50;70.70;;;;;;5070201;28;20492;-55
2021/12/24 11:41:17;;;;;;;;;;;-1.40;70.40;;;;;;5068582;28;20051;-54
2021/12/24 11:43:47;;;;;;;16.30;11.10;;;-1.40;70.60;;;;;;5074376;28;20340;-51
2021/12/24 11:46:16;;;;;;;14.75;10.80;;;-1.40;70.20;;;;;;5073633;28;20055;-54
2021/12/24 11:48:43;;;;;;;17.02;10.40;;;-1.30;70.20;;;;;;5074022;28;20020;-53
2021/12/24 11:51:21;;;;;;;14.55;11.10;;;-1.30;70.00;;;;;;5069596;28;20026;-55
2021/12/24 11:53:48;;;;;;;15.40;10.70;;;-1.30;69.80;;;;;;5072167;28;20036;-57
2021/12/24 11:56:17;;;;;;;16.38;12.05;;;-1.30;69.80;;;;;;5075737;28;20016;-56
2021/12/24 11:58:46;;;;;;;15.05;11.20;;;-1.30;69.80;;;;;;5077571;28;20486;-56
2021/12/24 12:01:14;;;;;;;14.98;10.75;;;-1.20;69.80;;;;;;5068459;28;20138;-57
2021/12/24 12:03:54;;;;;;;16.52;11.45;;;-1.20;69.70;;;;;;5070930;28;20475;-57
2021/12/24 12:06:23;;;;;;;17.38;10.80;;;-1.20;69.80;;;;;;5071687;28;20119;-57
2021/12/24 12:09:00;;;;;;;16.55;11.02;;;-1.20;69.80;;;;;;5062952;28;20519;-57
2021/12/24 12:11:31;;;;;;;16.63;10.48;;;-1.10;69.90;;;;;;5059237;28;20031;-57
2021/12/24 12:13:59;;;;;;;17.10;12.27;;;-1.00;69.80;;;;;;5056740;28;20020;-57
2021/12/24 12:16:39;;;;;;;14.75;10.15;;;-0.90;69.70;;;;;;5064056;28;20060;-56
2021/12/24 12:20:00;;;;;;;13.05;9.30;;;-0.80;69.60;;;;;;5061231;28;20032;-55
2021/12/24 12:24:59;;;;;;;15.45;11.45;;;-0.80;68.90;;;;;;5059575;28;23072;-59
2021/12/24 12:27:36;;;;;;;14.20;10.05;;;-0.80;68.90;;;;;;5066998;28;22046;-58
2021/12/24 12:30:21;;;;;;;16.60;12.30;;;-0.80;68.90;;;;;;5062989;28;20031;-57
2021/12/24 12:32:48;;;;;;;14.05;10.20;;;-0.80;68.90;;;;;;5060840;28;20027;-57
2021/12/24 12:35:15;;;;;;;14.55;9.85;;;-0.90;68.90;;;;;;5059425;28;20031;-57
2021/12/24 12:37:53;;;;;;;15.57;10.05;;;-0.90;68.90;;;;;;5062536;28;20054;-57
2021/12/24 12:40:19;;;;;;;16.40;9.73;;;-0.90;68.90;;;;;;5059602;28;20059;-57
2021/12/24 12:42:58;;;;;;;17.60;10.73;;;-0.90;68.90;;;;;;5065365;28;20106;-57
2021/12/24 12:45:32;;;;;;;16.70;11.07;;;-0.90;69.00;;;;;;5057855;28;20056;-58
2021/12/24 12:48:01;;;;;;;16.65;11.95;;;-0.90;69.10;;;;;;5065177;28;20036;-58
2021/12/24 12:50:28;;;;;;;14.77;11.15;;;-0.80;69.20;;;;;;5061070;28;20025;-58
2021/12/24 12:53:26;;;;;;;17.88;11.80;;;-0.80;69.00;;;;;;5066531;28;20111;-57
2021/12/24 12:56:27;;;;;;;15.88;10.95;;;-0.70;68.90;;;;;;5054117;28;21893;-57
2021/12/24 12:59:01;;;;;;;14.82;10.48;;;-0.70;68.80;;;;;;5060220;28;20656;-56
2021/12/24 13:01:27;;;;;;;17.15;10.88;;;-0.70;68.60;;;;;;5055746;28;20032;-57
2021/12/24 13:03:56;;;;;;;16.05;10.90;;;-0.60;69.10;;;;;;5065957;28;20025;-56
2021/12/24 13:06:41;;;;;;;17.90;12.50;;;-0.60;68.80;;;;;;5057772;28;20034;-56
2021/12/24 13:09:10;;;;;;;14.55;10.93;;;-0.60;68.60;;;;;;5058985;28;21235;-55
2021/12/24 13:11:38;;;;;;;17.52;13.48;;;-0.50;68.70;;;;;;5068374;28;20043;-55
2021/12/24 13:14:05;;;;;;;18.23;13.27;;;-0.50;68.70;;;;;;5066057;28;20874;-55
2021/12/24 13:16:45;;;;;;;16.10;11.52;;;-0.40;68.70;;;;;;5071822;28;20360;-58
2021/12/24 13:24:59;;;;;;;15.85;12.15;;;-0.30;68.40;;;;;;5070902;28;20062;-60
2021/12/24 13:27:31;;;;;;;14.57;11.52;;;-0.20;68.50;;;;;;5066044;28;21291;-58
2021/12/24 13:30:08;;;;;;;19.77;15.27;;;-0.20;68.40;;;;;;5066283;28;20043;-57
2021/12/24 13:33:06;;;;;;;18.83;13.93;;;-0.20;68.40;;;;;;5066528;28;20375;-56
2021/12/24 13:35:38;;;;;;;19.55;14.32;;;-0.20;68.40;;;;;;5068401;28;20028;-57
2021/12/24 13:38:04;;;;;;;;;;;-0.20;68.40;;;;;;5064220;28;20143;-54
2021/12/24 13:40:34;;;;;;;15.20;10.27;;;-0.20;68.70;;;;;;5051109;28;20360;-56
2021/12/24 13:43:12;;;;;;;18.13;12.48;;;-0.20;68.60;;;;;;5060129;28;20043;-56
2021/12/24 13:45:38;;;;;;;17.60;12.93;;;-0.20;69.00;;;;;;5069736;28;23973;-58
2021/12/24 13:48:12;;;;;;;17.60;12.18;;;-0.20;68.80;;;;;;5068812;28;20098;-57
2021/12/24 13:56:27;;;;;;;12.50;10.15;;;-0.10;68.90;;;;;;5070672;28;20046;-56
2021/12/24 13:58:57;;;;;;;12.95;10.73;;;-0.10;68.80;;;;;;5067463;28;20047;-58
2021/12/24 14:01:28;;;;;;;13.90;10.00;;;0.00;68.80;;;;;;5062595;28;20023;-58
2021/12/24 14:03:55;;;;;;;15.95;11.23;;;0.00;68.90;;;;;;5059208;28;20039;-58
2021/12/24 14:06:31;;;;;;;13.98;9.70;;;0.00;68.90;;;;;;5060589;28;20507;-57
2021/12/24 14:09:07;;;;;;;15.40;11.30;;;0.00;69.10;;;;;;5055034;28;20024;-58
2021/12/24 14:11:36;;;;;;;12.85;10.32;;;0.10;69.20;;;;;;5061777;28;20103;-56
2021/12/24 14:14:06;;;;;;;13.45;10.85;;;0.10;69.20;;;;;;5067000;28;20081;-56
2021/12/24 14:19:29;;;;;;;16.15;10.90;;;0.20;69.30;;;;;;5063379;28;20050;-57
2021/12/24 14:22:15;;;;;;;13.30;9.77;;;0.30;69.30;;;;;;5071901;28;20032;-57
2021/12/24 14:24:53;;;;;;;16.88;10.70;;;0.30;69.70;;;;;;5068332;28;20052;-58
2021/12/24 14:27:21;;;;;;;16.23;11.35;;;0.30;69.30;;;;;;5066781;28;20613;-57
2021/12/24 14:29:54;;;;;;;13.45;9.85;;;0.40;69.20;;;;;;5063433;28;20028;-56
2021/12/24 14:32:44;;;;;;;12.68;9.73;;;0.50;69.10;;;;;;5064750;28;20086;-55
2021/12/24 14:35:23;;;;;;;13.50;9.68;;;0.40;69.00;;;;;;5067445;28;20388;-56
2021/12/24 14:38:07;;;;;;;14.05;10.18;;;0.50;69.20;;;;;;5074075;28;20035;-57